BARTON ATIS
Please check data is current before use. Last Updated 24/09/2017 15:32:09 z
This page displays the latest information from the ‘Barton ATIS’, which provides real time information on the availability of the airport, unofficial weather observations and status of facilities. Please ensure that you check the date and time to ensure the data below is current. All times are UTC.
M 1530 z
STATUS: Airfield Open

RWY 08L / CCT LH

M/CR QNH 1017

BARTON QFE 1015

NEXT RUNWAY INSPECTION:24/09/17 13:00 AIRFIELD CLOSES:1803z

UNOFFICIAL WEATHER:
Unofficial Weather EGCB 241530Z 13006KT 9999 FEW030 20/14 Q1017


BRIEFING:
-CRANE ACTIVITY WITHIN ATZ. REFER TO NOTAMS
-HTA-S NOT AVAILABLE




TOUCH AND GO STATUS:
Permitted

08L/26R - Firm / Dry
08R/26L - Firm / Dry
14/32 - Closed due Aircraft Parking
02/20 - Firm / Dry

SURFACE WIND TREND:
(updated 24hrs)